KBIE/BIE METAR and TAF weather

Enter ICAO airport designator
Station Type Date Time Source
KBIE METAR 2018/12/12 23:15 UTC NOAA

KBIE 122315Z AUTO 17006KT 10SM CLR 06/00 A2973 RMK AO2 T00581001


Station Type Date Time Source
KBIE Decoded METAR 2018/12/12 23:15 UTC NOAA

Beatrice Municipal, NE, United States (KBIE) 40-18N 096-45W
Dec 12, 2018 - 06:15 PM EST / 2018.12.12 2315 UTC
Wind: from the S (170 degrees) at 7 MPH (6 KT):0
Visibility: 10 mile(s):0
Sky conditions: clear
Temperature: 42.4 F (5.8 C)
Dew Point: 31.8 F (-0.1 C)
Relative Humidity: 65%
Pressure (altimeter): 29.73 in. Hg (1006 hPa)
ob: KBIE 122315Z AUTO 17006KT 10SM CLR 06/00 A2973 RMK AO2 T00581001
cycle: 23

Station Type Date Time Source
KBIE TAF UTC NOAA

Error!


Example: see airport list